Time;durP1;ratioP1;P1;durP2;ratioP2;P2;SDS_P1;SDS_P2;PMS_P1;PMS_P2;Temp;Humidity;BMP_temperature;BMP_pressure;BME280_temperature;BME280_humidity;BME280_pressure;Samples;Min_cycle;Max_cycle;Signal;HPM_P1;HPM_P2
2021/09/23 00:01:29;;;;;;;42.42;19.95;;;11.50;99.90;;;;;;4981407;28;20618;-65
2021/09/23 00:04:14;;;;;;;34.10;17.63;;;13.30;99.90;;;;;;4979823;28;20042;-65
2021/09/23 00:06:40;;;;;;;34.15;16.73;;;11.50;99.90;;;;;;4979340;28;20038;-65
2021/09/23 00:09:05;;;;;;;31.13;16.17;;;11.50;99.90;;;;;;4980344;28;20045;-65
2021/09/23 00:11:31;;;;;;;38.90;16.83;;;11.50;99.90;;;;;;4980380;28;20458;-65
2021/09/23 00:13:58;;;;;;;37.53;18.55;;;11.50;99.90;;;;;;4980595;28;20134;-65
2021/09/23 00:16:23;;;;;;;39.53;19.55;;;11.50;99.90;;;;;;4978309;28;20556;-66
2021/09/23 00:18:49;;;;;;;40.45;20.17;;;11.20;99.90;;;;;;4980033;28;20125;-65
2021/09/23 00:21:14;;;;;;;40.63;20.38;;;11.50;99.90;;;;;;4980023;28;20187;-65
2021/09/23 00:23:40;;;;;;;41.47;21.10;;;11.10;99.90;;;;;;4980298;28;20494;-66
2021/09/23 00:26:05;;;;;;;43.03;20.67;;;11.30;99.90;;;;;;4979966;28;20030;-66
2021/09/23 00:28:31;;;;;;;40.40;21.42;;;11.30;99.90;;;;;;4979906;28;20034;-66
2021/09/23 00:30:56;;;;;;;42.50;22.45;;;11.40;99.90;;;;;;4962506;28;20056;-65
2021/09/23 00:33:22;;;;;;;48.13;23.08;;;11.20;99.90;;;;;;4977999;28;20034;-65
2021/09/23 00:35:48;;;;;;;42.90;22.67;;;11.40;99.90;;;;;;4978226;28;20053;-66
2021/09/23 00:38:13;;;;;;;50.80;23.98;;;11.40;99.90;;;;;;4977925;28;20053;-65
2021/09/23 00:40:39;;;;;;;51.28;25.30;;;11.40;99.90;;;;;;4980002;28;20170;-65
2021/09/23 00:43:05;;;;;;;53.03;26.52;;;11.30;99.90;;;;;;4978116;28;20034;-65
2021/09/23 00:45:31;;;;;;;57.58;26.27;;;11.30;99.90;;;;;;4980397;28;20856;-65
2021/09/23 00:47:56;;;;;;;52.30;24.60;;;11.30;99.90;;;;;;4978035;28;20037;-65
2021/09/23 00:50:22;;;;;;;57.90;26.60;;;11.30;99.90;;;;;;4977949;28;20082;-65
2021/09/23 00:52:51;;;;;;;53.22;26.35;;;11.30;99.90;;;;;;4978220;28;20041;-65
2021/09/23 00:55:19;;;;;;;60.13;27.02;;;11.30;99.90;;;;;;4977376;28;20506;-65
2021/09/23 00:57:46;;;;;;;55.03;26.77;;;11.30;99.90;;;;;;4978394;28;20042;-65
2021/09/23 01:00:11;;;;;;;66.20;30.63;;;11.30;99.90;;;;;;4977587;28;20216;-65
2021/09/23 01:02:56;;;;;;;58.03;28.30;;;11.30;99.90;;;;;;4977646;28;20026;-65
2021/09/23 01:05:21;;;;;;;64.30;29.95;;;11.30;99.90;;;;;;4978451;28;20604;-65
2021/09/23 01:07:47;;;;;;;58.15;29.27;;;11.50;99.90;;;;;;4978921;28;20034;-65
2021/09/23 01:10:13;;;;;;;60.33;28.55;;;15.40;99.90;;;;;;4977198;28;20061;-65
2021/09/23 01:12:39;;;;;;;55.72;26.25;;;11.30;99.90;;;;;;4978761;28;20121;-65
2021/09/23 01:15:05;;;;;;;62.78;27.80;;;11.30;99.90;;;;;;4977602;28;20026;-66
2021/09/23 01:17:30;;;;;;;54.03;28.08;;;11.30;99.90;;;;;;4977052;28;20144;-65
2021/09/23 01:19:58;;;;;;;59.80;29.20;;;11.30;99.90;;;;;;4971857;28;20113;-66
2021/09/23 01:22:23;;;;;;;64.10;28.92;;;11.30;99.90;;;;;;4977665;28;20038;-66
2021/09/23 01:25:22;;;;;;;59.70;28.20;;;11.30;99.90;;;;;;4973833;28;20041;-65
2021/09/23 01:27:50;;;;;;;56.65;28.30;;;11.20;99.90;;;;;;4973741;28;20034;-65
2021/09/23 01:30:35;;;;;;;70.63;34.25;;;11.30;99.90;;;;;;4982164;28;20061;-66
2021/09/23 01:33:01;;;;;;;67.50;33.15;;;11.30;99.90;;;;;;4978946;28;20030;-66
2021/09/23 01:35:27;;;;;;;78.93;36.30;;;11.30;99.90;;;;;;4961475;28;20117;-65
2021/09/23 01:37:53;;;;;;;72.72;33.95;;;11.50;99.90;;;;;;4977518;28;20395;-66
2021/09/23 01:40:19;;;;;;;68.60;33.15;;;11.40;99.90;;;;;;4978613;28;20041;-65
2021/09/23 01:42:44;;;;;;;76.40;33.38;;;11.40;99.90;;;;;;4979246;28;20498;-65
2021/09/23 01:45:10;;;;;;;80.18;35.28;;;11.40;99.90;;;;;;4979303;28;20041;-65
2021/09/23 01:47:44;;;;;;;73.55;33.20;;;11.40;99.90;;;;;;4979158;28;20060;-65
2021/09/23 01:50:11;;;;;;;69.10;32.30;;;11.70;99.90;;;;;;4979628;28;20046;-66
2021/09/23 01:52:37;;;;;;;67.78;33.17;;;11.50;99.90;;;;;;4978129;28;20830;-66
2021/09/23 01:55:10;;;;;;;65.95;31.25;;;11.40;99.90;;;;;;4976989;28;20045;-65
2021/09/23 01:57:36;;;;;;;76.35;32.70;;;11.60;99.90;;;;;;4978396;28;20069;-65
2021/09/23 02:00:01;;;;;;;66.43;32.75;;;11.40;99.90;;;;;;4978485;28;21046;-65
2021/09/23 02:02:38;;;;;;;83.28;33.83;;;11.40;99.90;;;;;;4973719;28;20039;-65
2021/09/23 02:05:05;;;;;;;66.07;30.80;;;11.40;99.90;;;;;;4976805;28;20027;-65
2021/09/23 02:07:31;;;;;;;77.55;33.47;;;11.60;99.90;;;;;;4976227;28;20023;-65
2021/09/23 02:10:02;;;;;;;72.90;33.40;;;11.30;99.90;;;;;;4973241;28;20030;-65
2021/09/23 02:12:28;;;;;;;69.75;31.85;;;11.30;99.90;;;;;;4976812;28;20045;-66
2021/09/23 02:14:54;;;;;;;73.10;32.65;;;11.40;99.90;;;;;;4960406;28;20081;-66
2021/09/23 02:17:19;;;;;;;67.90;31.83;;;11.30;99.90;;;;;;4964281;28;20406;-66
2021/09/23 02:19:50;;;;;;;69.75;31.77;;;11.30;99.90;;;;;;4966605;28;20062;-65
2021/09/23 02:22:17;;;;;;;67.85;32.40;;;11.30;99.90;;;;;;4977861;28;20042;-65
2021/09/23 02:24:44;;;;;;;86.43;36.92;;;11.20;99.90;;;;;;4977428;28;20033;-65
2021/09/23 02:27:10;;;;;;;74.40;33.70;;;11.30;99.90;;;;;;4977816;28;20030;-65
2021/09/23 02:29:35;;;;;;;80.07;35.72;;;11.30;99.90;;;;;;4978403;28;20494;-65
2021/09/23 02:32:01;;;;;;;76.05;36.47;;;11.30;99.90;;;;;;4978754;28;20088;-65
2021/09/23 02:34:26;;;;;;;85.50;37.83;;;11.30;99.90;;;;;;4977771;28;20038;-66
2021/09/23 02:36:52;;;;;;;85.35;37.05;;;11.30;99.90;;;;;;4977563;28;20502;-65
2021/09/23 02:39:18;;;;;;;87.45;37.50;;;11.30;99.90;;;;;;4978824;28;20043;-65
2021/09/23 02:41:43;;;;;;;87.97;35.70;;;11.30;99.90;;;;;;4977693;28;20715;-65
2021/09/23 02:44:09;;;;;;;92.03;40.40;;;11.30;99.90;;;;;;4978995;28;20031;-66
2021/09/23 02:46:34;;;;;;;89.22;38.97;;;11.30;99.90;;;;;;4978882;28;20038;-65
2021/09/23 02:49:00;;;;;;;83.03;35.95;;;11.40;99.90;;;;;;4976823;28;20037;-66
2021/09/23 02:51:25;;;;;;;81.32;37.47;;;11.30;99.90;;;;;;4977890;28;20847;-65
2021/09/23 02:53:51;;;;;;;88.20;40.25;;;11.30;99.90;;;;;;4977053;28;20084;-65
2021/09/23 02:56:17;;;;;;;87.20;39.58;;;11.30;99.90;;;;;;4979843;28;20415;-65
2021/09/23 02:58:43;;;;;;;86.55;37.38;;;11.30;99.90;;;;;;4981189;28;20089;-65
2021/09/23 03:01:09;;;;;;;84.32;37.22;;;11.40;99.90;;;;;;4982551;28;21021;-65
2021/09/23 03:03:34;;;;;;;79.97;37.53;;;12.90;99.90;;;;;;4981103;28;20065;-66
2021/09/23 03:06:00;;;;;;;94.13;39.53;;;11.30;99.90;;;;;;4981061;28;20114;-66
2021/09/23 03:08:25;;;;;;;83.10;36.22;;;11.30;99.90;;;;;;4980459;28;20036;-65
2021/09/23 03:10:51;;;;;;;91.18;41.15;;;11.30;99.90;;;;;;4981633;28;20042;-65
2021/09/23 03:13:16;;;;;;;83.97;36.13;;;11.40;99.90;;;;;;4980870;28;20753;-65
2021/09/23 03:15:42;;;;;;;89.18;38.33;;;11.30;99.90;;;;;;4980518;28;20112;-66
2021/09/23 03:18:07;;;;;;;80.88;35.85;;;11.30;99.90;;;;;;4981920;28;20499;-66
2021/09/23 03:20:33;;;;;;;87.03;36.35;;;11.30;99.90;;;;;;4980588;28;20451;-65
2021/09/23 03:23:00;;;;;;;88.13;35.90;;;11.30;99.90;;;;;;4980871;28;20053;-66
2021/09/23 03:25:26;;;;;;;70.95;33.85;;;11.80;99.90;;;;;;4980121;28;20084;-65
2021/09/23 03:27:51;;;;;;;87.90;38.08;;;11.30;99.90;;;;;;4980268;28;20034;-65
2021/09/23 03:30:17;;;;;;;84.40;37.60;;;11.30;99.90;;;;;;4980334;28;20145;-66
2021/09/23 03:32:42;;;;;;;81.72;35.55;;;11.30;99.90;;;;;;4981107;28;20128;-65
2021/09/23 03:35:08;;;;;;;82.85;35.47;;;11.30;99.90;;;;;;4981788;28;20042;-65
2021/09/23 03:37:33;;;;;;;76.07;33.42;;;11.30;99.90;;;;;;4979385;28;20037;-66
2021/09/23 03:39:59;;;;;;;75.70;36.53;;;11.20;99.90;;;;;;4984945;28;20137;-65
2021/09/23 03:42:24;;;;;;;78.38;35.45;;;11.20;99.90;;;;;;4981415;28;20486;-65
2021/09/23 03:44:50;;;;;;;91.28;36.38;;;11.10;99.90;;;;;;4980215;28;20027;-65
2021/09/23 03:47:15;;;;;;;93.75;39.03;;;11.10;99.90;;;;;;4978999;28;20080;-65
2021/09/23 03:49:41;;;;;;;86.07;35.42;;;12.10;99.90;;;;;;4980267;28;20049;-65
2021/09/23 03:52:06;;;;;;;89.40;37.28;;;11.00;99.90;;;;;;4981297;28;20089;-64
2021/09/23 03:54:32;;;;;;;89.55;38.83;;;11.00;99.90;;;;;;4978672;28;20037;-64
2021/09/23 03:56:57;;;;;;;90.07;40.05;;;11.00;99.90;;;;;;4980994;28;20034;-64
2021/09/23 03:59:23;;;;;;;89.80;38.08;;;11.00;99.90;;;;;;4979435;28;20121;-64
2021/09/23 04:01:49;;;;;;;80.28;35.67;;;11.00;99.90;;;;;;4963385;28;20042;-64
2021/09/23 04:04:15;;;;;;;91.50;37.25;;;11.00;99.90;;;;;;4980020;28;20034;-64
2021/09/23 04:06:43;;;;;;;90.28;38.25;;;10.90;99.90;;;;;;4979619;28;20978;-64
2021/09/23 04:09:14;;;;;;;82.70;36.55;;;10.90;99.90;;;;;;4977535;28;20157;-65
2021/09/23 04:11:39;;;;;;;98.13;40.28;;;10.90;99.90;;;;;;4979059;28;20057;-64
2021/09/23 04:14:05;;;;;;;99.70;40.72;;;10.90;99.90;;;;;;4981089;28;20180;-64
2021/09/23 04:16:31;;;;;;;93.53;39.75;;;10.90;99.90;;;;;;4978648;28;20073;-64
2021/09/23 04:18:56;;;;;;;96.40;39.95;;;10.90;99.90;;;;;;4978641;28;20035;-65
2021/09/23 04:21:22;;;;;;;101.18;42.60;;;11.00;99.90;;;;;;4979368;28;20531;-64
2021/09/23 04:23:47;;;;;;;105.43;43.85;;;11.00;99.90;;;;;;4978425;28;20774;-64
2021/09/23 04:26:15;;;;;;;99.63;39.78;;;11.00;99.90;;;;;;4975273;28;20050;-64
2021/09/23 04:28:40;;;;;;;101.72;41.58;;;11.10;99.90;;;;;;4970340;28;20042;-65
2021/09/23 04:31:06;;;;;;;95.47;39.53;;;11.10;99.90;;;;;;4978568;28;20124;-64
2021/09/23 04:33:33;;;;;;;87.28;37.80;;;11.10;99.90;;;;;;4978965;28;20046;-64
2021/09/23 04:36:00;;;;;;;91.10;36.28;;;11.10;99.90;;;;;;4978595;28;20513;-64
2021/09/23 04:38:28;;;;;;;94.20;39.45;;;11.00;99.90;;;;;;4978034;28;20041;-64
2021/09/23 04:40:53;;;;;;;95.63;40.58;;;11.00;99.90;;;;;;4978448;28;20030;-64
2021/09/23 04:43:19;;;;;;;97.10;39.10;;;11.00;99.90;;;;;;4962961;28;20038;-66
2021/09/23 04:45:45;;;;;;;94.18;39.00;;;11.00;99.90;;;;;;4961922;28;20450;-64
2021/09/23 04:48:10;;;;;;;97.63;39.70;;;11.00;99.90;;;;;;4976495;28;20030;-64
2021/09/23 04:50:37;;;;;;;90.07;39.42;;;10.90;99.90;;;;;;4977992;28;20498;-63
2021/09/23 04:53:06;;;;;;;90.45;38.20;;;10.90;99.90;;;;;;4977240;28;20503;-63
2021/09/23 04:55:32;;;;;;;107.15;43.40;;;10.90;99.90;;;;;;4975680;28;20037;-64
2021/09/23 04:58:00;;;;;;;95.38;39.33;;;10.90;99.90;;;;;;4976722;28;20410;-64
2021/09/23 05:00:25;;;;;;;96.63;40.15;;;9.80;99.90;;;;;;4952647;28;20031;-64
2021/09/23 05:02:51;;;;;;;92.88;38.30;;;10.80;99.90;;;;;;4979035;28;20963;-65
2021/09/23 05:05:16;;;;;;;103.22;42.00;;;10.80;99.90;;;;;;4979638;28;20026;-64
2021/09/23 05:07:42;;;;;;;98.05;43.65;;;10.70;99.90;;;;;;4978025;28;20030;-64
2021/09/23 05:10:08;;;;;;;98.78;41.83;;;10.90;99.90;;;;;;4978344;28;20042;-64
2021/09/23 05:12:34;;;;;;;108.32;41.85;;;10.80;99.90;;;;;;4977553;28;20112;-64
2021/09/23 05:15:01;;;;;;;104.95;42.28;;;10.90;99.90;;;;;;4977582;28;20026;-64
2021/09/23 05:17:26;;;;;;;103.57;43.83;;;11.00;99.90;;;;;;4974856;28;20814;-64
2021/09/23 05:19:52;;;;;;;111.93;43.03;;;11.00;99.90;;;;;;4978928;28;20061;-64
2021/09/23 05:22:20;;;;;;;85.43;38.53;;;11.10;99.90;;;;;;4978394;28;20216;-64
2021/09/23 05:24:48;;;;;;;88.63;38.92;;;11.10;99.90;;;;;;4979024;28;20549;-64
2021/09/23 05:27:13;;;;;;;81.43;37.67;;;11.10;99.90;;;;;;4978563;28;20088;-64
2021/09/23 05:29:41;;;;;;;83.13;36.33;;;11.10;99.90;;;;;;4977812;28;20034;-64
2021/09/23 05:32:07;;;;;;;73.95;34.45;;;11.20;99.90;;;;;;4979302;28;20038;-64
2021/09/23 05:34:33;;;;;;;72.88;32.33;;;11.20;99.90;;;;;;4978337;28;20046;-64
2021/09/23 05:36:58;;;;;;;78.20;34.03;;;11.30;99.90;;;;;;4977881;28;20049;-64
2021/09/23 05:39:24;;;;;;;75.43;34.30;;;11.20;99.90;;;;;;4979100;28;20049;-64
2021/09/23 05:41:49;;;;;;;69.38;33.42;;;12.40;99.90;;;;;;4978089;28;20038;-64
2021/09/23 05:44:15;;;;;;;70.55;33.72;;;11.30;99.90;;;;;;4978757;28;20038;-65
2021/09/23 05:46:40;;;;;;;73.38;35.20;;;11.30;99.90;;;;;;4978142;28;20032;-64
2021/09/23 05:49:06;;;;;;;67.28;32.72;;;11.40;99.90;;;;;;4978376;28;20584;-64
2021/09/23 05:51:32;;;;;;;63.58;31.63;;;11.40;99.90;;;;;;4978882;28;20129;-64
2021/09/23 05:53:57;;;;;;;67.00;30.35;;;11.40;99.90;;;;;;4977803;28;20034;-64
2021/09/23 05:56:23;;;;;;;67.90;31.38;;;11.50;99.90;;;;;;4977769;28;20604;-64
2021/09/23 05:58:48;;;;;;;66.07;33.53;;;11.60;99.90;;;;;;4977087;28;20522;-64
2021/09/23 06:01:14;;;;;;;71.18;32.55;;;11.70;99.90;;;;;;4978539;28;20045;-64
2021/09/23 06:03:39;;;;;;;61.25;31.88;;;11.70;99.90;;;;;;4979077;28;20045;-64
2021/09/23 06:06:06;;;;;;;73.20;33.67;;;11.80;99.90;;;;;;4977911;28;20034;-64
2021/09/23 06:08:31;;;;;;;71.65;34.78;;;12.40;99.90;;;;;;4978805;28;20286;-64
2021/09/23 06:10:57;;;;;;;69.28;31.88;;;12.00;99.90;;;;;;4977775;28;20117;-64
2021/09/23 06:13:22;;;;;;;60.78;29.70;;;12.00;99.90;;;;;;4976561;28;20041;-64
2021/09/23 06:15:50;;;;;;;63.47;31.48;;;12.10;99.90;;;;;;4978434;28;20604;-64
2021/09/23 06:18:15;;;;;;;64.57;32.33;;;12.10;99.90;;;;;;4977194;28;20133;-65
2021/09/23 06:20:43;;;;;;;59.45;31.00;;;12.20;99.90;;;;;;4978092;28;20852;-64
2021/09/23 06:23:08;;;;;;;60.47;31.52;;;12.30;99.90;;;;;;4977444;28;20807;-64
2021/09/23 06:25:37;;;;;;;54.15;28.20;;;12.30;99.90;;;;;;4976553;28;20026;-64
2021/09/23 06:28:02;;;;;;;57.88;29.55;;;12.40;99.90;;;;;;4976677;28;20033;-64
2021/09/23 06:30:28;;;;;;;55.67;29.15;;;12.40;99.90;;;;;;4975467;28;20042;-64
2021/09/23 06:32:53;;;;;;;60.10;27.92;;;12.50;99.90;;;;;;4981406;28;20513;-64
2021/09/23 06:35:19;;;;;;;51.35;27.30;;;12.50;99.90;;;;;;4964430;28;20844;-64
2021/09/23 06:37:44;;;;;;;60.58;29.02;;;12.60;99.90;;;;;;4963805;28;20061;-65
2021/09/23 06:40:10;;;;;;;61.05;29.88;;;12.60;99.90;;;;;;4980192;28;20081;-64
2021/09/23 06:42:35;;;;;;;54.65;28.38;;;12.60;99.90;;;;;;4980239;28;20117;-64
2021/09/23 06:45:01;;;;;;;57.42;29.63;;;12.70;99.90;;;;;;4982502;28;20034;-64
2021/09/23 06:47:26;;;;;;;59.28;29.20;;;12.80;99.90;;;;;;4978707;28;20034;-64
2021/09/23 06:49:52;;;;;;;58.15;28.58;;;11.80;99.90;;;;;;4983191;28;20030;-66
2021/09/23 06:52:17;;;;;;;64.18;31.25;;;12.70;99.90;;;;;;4982674;28;20761;-64
2021/09/23 06:54:43;;;;;;;63.15;31.15;;;12.80;99.90;;;;;;4981522;28;20550;-65
2021/09/23 06:57:08;;;;;;;57.60;30.10;;;12.90;99.90;;;;;;4982607;28;20030;-64
2021/09/23 06:59:38;;;;;;;65.53;30.52;;;12.90;99.90;;;;;;4982461;28;20073;-64
2021/09/23 07:02:04;;;;;;;55.50;30.55;;;13.00;99.90;;;;;;4983419;28;20501;-65
2021/09/23 07:04:52;;;;;;;62.25;31.70;;;13.10;99.90;;;;;;4981179;28;20110;-65
2021/09/23 07:07:21;;;;;;;52.75;30.10;;;13.30;99.90;;;;;;4979858;28;20026;-64
2021/09/23 07:09:49;;;;;;;52.10;28.80;;;13.40;99.90;;;;;;4981034;28;20042;-64
2021/09/23 07:12:20;;;;;;;59.28;30.48;;;13.50;99.90;;;;;;4981283;28;20034;-64
2021/09/23 07:14:46;;;;;;;59.03;28.38;;;13.70;99.90;;;;;;4981360;28;20034;-65
2021/09/23 07:17:11;;;;;;;58.60;29.65;;;14.70;99.90;;;;;;4981196;28;20041;-64
2021/09/23 07:19:39;;;;;;;54.05;26.73;;;13.90;99.90;;;;;;4980770;28;20049;-64
2021/09/23 07:22:05;;;;;;;49.20;26.52;;;14.00;99.90;;;;;;4981062;28;20038;-64
2021/09/23 07:24:30;;;;;;;56.15;27.15;;;14.10;99.90;;;;;;4981156;28;20034;-65
2021/09/23 07:26:56;;;;;;;47.50;25.55;;;14.30;99.90;;;;;;4982208;28;20576;-64
2021/09/23 07:29:22;;;;;;;50.28;25.77;;;14.40;99.90;;;;;;4982318;28;20129;-64
2021/09/23 07:31:48;;;;;;;48.90;25.52;;;14.50;99.90;;;;;;4980449;28;20026;-65
2021/09/23 07:34:13;;;;;;;49.75;25.23;;;14.70;99.90;;;;;;4982664;28;20034;-65
2021/09/23 07:36:39;;;;;;;42.90;23.48;;;14.80;99.90;;;;;;4980855;28;20034;-65
2021/09/23 07:39:06;;;;;;;43.88;23.30;;;15.00;99.90;;;;;;4981489;28;20093;-64
2021/09/23 07:41:32;;;;;;;40.58;22.15;;;15.20;99.90;;;;;;4982569;28;20645;-64
2021/09/23 07:43:58;;;;;;;41.63;22.33;;;15.40;99.90;;;;;;4981604;28;20038;-65
2021/09/23 07:46:23;;;;;;;43.45;20.42;;;15.50;99.90;;;;;;4980749;28;20399;-64
2021/09/23 07:48:53;;;;;;;40.28;20.58;;;15.90;99.90;;;;;;4979713;28;20514;-65
2021/09/23 07:51:18;;;;;;;40.13;20.67;;;16.00;99.90;;;;;;4981847;28;20038;-65
2021/09/23 07:53:44;;;;;;;35.15;19.98;;;16.20;99.90;;;;;;4980923;28;20136;-65
2021/09/23 07:56:09;;;;;;;38.72;21.00;;;16.40;99.90;;;;;;4980183;28;20641;-64
2021/09/23 07:58:35;;;;;;;39.40;18.73;;;16.70;99.90;;;;;;4979244;28;20030;-64
2021/09/23 08:01:02;;;;;;;36.05;19.52;;;16.90;99.90;;;;;;4980390;28;20057;-65
2021/09/23 08:03:29;;;;;;;37.10;18.88;;;17.10;99.90;;;;;;4980875;28;20124;-65
2021/09/23 08:05:55;;;;;;;38.80;18.85;;;17.80;99.90;;;;;;4979813;28;20034;-68
2021/09/23 08:08:21;;;;;;;37.17;18.98;;;17.60;99.90;;;;;;4980528;28;20951;-67
2021/09/23 08:10:46;;;;;;;32.63;16.70;;;17.70;99.90;;;;;;4979913;28;20046;-65
2021/09/23 08:13:12;;;;;;;35.92;17.75;;;17.70;99.90;;;;;;4979978;28;20046;-65
2021/09/23 08:15:38;;;;;;;33.67;17.50;;;17.90;99.90;;;;;;4979638;28;20100;-65
2021/09/23 08:18:20;;;;;;;34.65;17.52;;;18.30;99.90;;;;;;4979489;28;20394;-65
2021/09/23 08:21:08;;;;;;;34.13;17.38;;;17.50;99.90;;;;;;4980191;28;20417;-65
2021/09/23 08:23:34;;;;;;;30.15;16.33;;;17.50;99.90;;;;;;4963525;28;20030;-65
2021/09/23 08:25:59;;;;;;;33.78;18.00;;;18.10;99.90;;;;;;4980025;28;20034;-65
2021/09/23 08:28:27;;;;;;;28.73;14.88;;;17.60;99.90;;;;;;4977788;28;20095;-65
2021/09/23 08:30:53;;;;;;;30.08;16.20;;;17.70;99.90;;;;;;4975882;28;20038;-65
2021/09/23 08:33:18;;;;;;;30.02;15.77;;;18.10;99.90;;;;;;4980534;28;20034;-65
2021/09/23 08:35:44;;;;;;;38.72;15.80;;;17.80;99.90;;;;;;4979519;28;20065;-66
2021/09/23 08:38:09;;;;;;;33.47;16.73;;;18.00;99.90;;;;;;4961251;28;20143;-65
2021/09/23 08:40:35;;;;;;;28.85;13.90;;;18.00;99.90;;;;;;4978397;28;20034;-64
2021/09/23 08:43:00;;;;;;;27.00;13.15;;;18.10;99.90;;;;;;4978619;28;20076;-65
2021/09/23 08:45:26;;;;;;;26.67;13.98;;;18.20;99.90;;;;;;4980984;28;20026;-67
2021/09/23 08:47:53;;;;;;;29.17;14.45;;;18.20;99.90;;;;;;4978314;28;20033;-64
2021/09/23 08:50:19;;;;;;;29.33;14.52;;;18.10;99.90;;;;;;4978777;28;20129;-64
2021/09/23 08:52:48;;;;;;;31.52;14.55;;;17.90;99.90;;;;;;4978726;28;20048;-64
2021/09/23 08:55:14;;;;;;;32.88;15.20;;;17.90;99.90;;;;;;4962395;28;20030;-64
2021/09/23 08:57:39;;;;;;;25.70;13.30;;;17.90;99.90;;;;;;4978052;28;20089;-65
2021/09/23 09:00:05;;;;;;;25.52;12.45;;;17.90;99.90;;;;;;4978323;28;20046;-64
2021/09/23 09:02:32;;;;;;;32.33;14.65;;;18.30;99.90;;;;;;4978972;28;20811;-64
2021/09/23 09:05:16;;;;;;;27.77;13.00;;;18.60;99.90;;;;;;4985930;28;20053;-64
2021/09/23 09:08:15;;;;;;;25.17;13.65;;;18.70;99.90;;;;;;4967020;28;20718;-65
2021/09/23 09:10:59;;;;;;;26.80;13.45;;;18.60;99.90;;;;;;4978160;28;20042;-64
2021/09/23 09:13:24;;;;;;;25.92;13.65;;;18.90;99.90;;;;;;4977978;28;20041;-65
2021/09/23 09:15:50;;;;;;;27.35;14.10;;;19.20;99.90;;;;;;4980200;28;20941;-65
2021/09/23 09:18:16;;;;;;;35.40;16.73;;;19.00;99.90;;;;;;4976827;28;20664;-65
2021/09/23 09:20:44;;;;;;;43.42;17.50;;;18.80;99.90;;;;;;4962008;28;20035;-65
2021/09/23 09:23:10;;;;;;;29.23;15.23;;;18.70;99.90;;;;;;4977602;28;20062;-64
2021/09/23 09:25:36;;;;;;;25.85;12.95;;;18.80;99.90;;;;;;4977991;28;20577;-65
2021/09/23 09:28:01;;;;;;;48.63;19.23;;;18.90;99.90;;;;;;4977507;28;20073;-64
2021/09/23 09:30:28;;;;;;;47.80;20.00;;;18.90;99.90;;;;;;4977114;28;20095;-65
2021/09/23 09:32:57;;;;;;;33.70;15.63;;;18.30;99.90;;;;;;4979834;28;20045;-65
2021/09/23 09:35:30;;;;;;;33.67;15.57;;;;;;;;;;4961132;28;20544;-65
2021/09/23 09:37:57;;;;;;;25.65;13.50;;;;;;;;;;4977472;28;20034;-65
2021/09/23 09:40:24;;;;;;;30.88;14.77;;;;;;;;;;4977415;28;20030;-65
2021/09/23 09:42:51;;;;;;;36.28;14.90;;;;;;;;;;4976712;28;20030;-65
2021/09/23 09:45:18;;;;;;;32.08;13.50;;;19.10;99.90;;;;;;4977917;28;20045;-65
2021/09/23 09:47:51;;;;;;;32.38;14.23;;;;;;;;;;4976887;28;20126;-65
2021/09/23 09:50:18;;;;;;;28.67;12.23;;;;;;;;;;4984959;28;20224;-65
2021/09/23 09:52:44;;;;;;;28.02;13.73;;;;;;;;;;4981878;28;20026;-65
2021/09/23 09:55:10;;;;;;;20.23;11.55;;;;;;;;;;4977185;28;20038;-65
2021/09/23 09:57:35;;;;;;;24.58;13.05;;;;;;;;;;4976956;28;20041;-65
2021/09/23 10:00:02;;;;;;;26.67;12.20;;;;;;;;;;4977965;28;20443;-66
2021/09/23 10:02:29;;;;;;;21.27;11.57;;;;;;;;;;4977714;28;20038;-66
2021/09/23 10:04:58;;;;;;;23.67;11.93;;;;;;;;;;4977998;28;20101;-66
2021/09/23 10:07:25;;;;;;;23.60;12.30;;;;;;;;;;4978448;28;20033;-66
2021/09/23 10:09:50;;;;;;;21.05;11.02;;;19.90;99.90;;;;;;4981229;28;20034;-66
2021/09/23 10:12:19;;;;;;;22.58;11.43;;;;;;;;;;4980138;28;20037;-66
2021/09/23 10:14:45;;;;;;;28.20;12.65;;;;;;;;;;4979336;28;20026;-66
2021/09/23 10:17:12;;;;;;;27.13;10.90;;;;;;;;;;4979359;28;20045;-66
2021/09/23 10:19:40;;;;;;;19.15;11.25;;;;;;;;;;4976802;28;20037;-66
2021/09/23 10:22:06;;;;;;;20.38;10.25;;;;;;;;;;4978267;28;20074;-65
2021/09/23 10:24:36;;;;;;;21.05;10.57;;;;;;;;;;4977876;28;20033;-66
2021/09/23 10:27:02;;;;;;;18.63;9.90;;;;;;;;;;4978124;28;20031;-64
2021/09/23 10:29:30;;;;;;;18.52;10.15;;;;;;;;;;4976667;28;20084;-72
2021/09/23 10:31:56;;;;;;;20.00;10.93;;;;;;;;;;4978232;28;20042;-71
2021/09/23 10:34:22;;;;;;;15.10;8.93;;;;;;;;;;4960662;28;20046;-72
2021/09/23 10:36:49;;;;;;;20.48;9.40;;;;;;;;;;4976632;28;20108;-70
2021/09/23 10:39:17;;;;;;;19.95;8.57;;;;;;;;;;4976255;28;20037;-73
2021/09/23 10:41:44;;;;;;;18.23;9.55;;;;;;;;;;4978041;28;20065;-70
2021/09/23 10:44:10;;;;;;;17.90;9.00;;;;;;;;;;4961834;28;20038;-71
2021/09/23 10:46:37;;;;;;;15.50;8.10;;;;;;;;;;4977162;28;20411;-71
2021/09/23 10:49:05;;;;;;;14.27;8.52;;;;;;;;;;4976761;28;20030;-71
2021/09/23 10:51:33;;;;;;;17.13;7.20;;;;;;;;;;4961579;28;20049;-70
2021/09/23 10:54:08;;;;;;;14.38;7.15;;;;;;;;;;4978156;28;20045;-70
2021/09/23 10:56:35;;;;;;;14.48;7.05;;;;;;;;;;4977261;28;20050;-70
2021/09/23 10:59:01;;;;;;;14.23;7.68;;;;;;;;;;4961816;28;20498;-69
2021/09/23 11:01:30;;;;;;;16.55;8.43;;;;;;;;;;4978975;28;20053;-71
2021/09/23 11:03:57;;;;;;;24.17;7.72;;;;;;;;;;4978042;28;20042;-70
2021/09/23 11:06:25;;;;;;;11.43;6.35;;;;;;;;;;4978673;28;20049;-69
2021/09/23 11:08:52;;;;;;;11.68;5.72;;;;;;;;;;4976645;28;20117;-68
2021/09/23 11:11:20;;;;;;;14.85;5.90;;;;;;;;;;4977454;28;20061;-69
2021/09/23 11:13:46;;;;;;;10.55;5.28;;;;;;;;;;4977650;28;20406;-69
2021/09/23 11:16:13;;;;;;;8.95;4.65;;;;;;;;;;4978070;28;20030;-70
2021/09/23 11:18:40;;;;;;;12.00;4.85;;;;;;;;;;4980691;28;20901;-69
2021/09/23 11:21:06;;;;;;;8.13;5.00;;;;;;;;;;4980824;28;20726;-70
2021/09/23 11:23:32;;;;;;;16.30;5.55;;;;;;;;;;4981142;28;20313;-70
2021/09/23 11:25:58;;;;;;;12.68;4.18;;;;;;;;;;4980552;28;20636;-70
2021/09/23 11:28:25;;;;;;;13.45;4.03;;;;;;;;;;4981875;28;20038;-70
2021/09/23 11:30:52;;;;;;;13.27;3.80;;;;;;;;;;4980964;28;20038;-71
2021/09/23 11:33:21;;;;;;;8.93;3.53;;;;;;;;;;4980037;28;20669;-71
2021/09/23 11:35:46;;;;;;;10.95;3.67;;;21.00;99.90;;;;;;4980770;28;20030;-70
2021/09/23 11:38:18;;;;;;;10.80;3.20;;;;;;;;;;4980559;28;20027;-68
2021/09/23 11:40:45;;;;;;;28.33;14.63;;;;;;;;;;4979798;28;20034;-70
2021/09/23 11:43:14;;;;;;;6.90;3.67;;;;;;;;;;4982181;28;20031;-70
2021/09/23 11:45:40;;;;;;;14.15;2.78;;;;;;;;;;4980688;28;20553;-69
2021/09/23 11:48:08;;;;;;;11.40;2.78;;;;;;;;;;4980146;28;20034;-68
2021/09/23 11:50:34;;;;;;;10.18;2.60;;;;;;;;;;4980486;28;20038;-68
2021/09/23 11:53:00;;;;;;;6.35;2.60;;;;;;;;;;4981768;28;20303;-68
2021/09/23 11:55:26;;;;;;;13.18;3.35;;;;;;;;;;4982602;28;20034;-68
2021/09/23 11:57:53;;;;;;;4.60;2.78;;;;;;;;;;4979976;28;20026;-70
2021/09/23 12:00:19;;;;;;;4.60;2.20;;;;;;;;;;4979665;28;20526;-69
2021/09/23 12:02:45;;;;;;;8.85;3.50;;;;;;;;;;4980355;28;20041;-69
2021/09/23 12:05:11;;;;;;;19.73;9.75;;;21.20;99.90;;;;;;4979705;28;20034;-69
2021/09/23 12:07:37;;;;;;;9.13;2.20;;;;;;;;;;4980426;28;20038;-68
2021/09/23 12:10:03;;;;;;;5.97;2.30;;;;;;;;;;4979133;28;20033;-69
2021/09/23 12:12:32;;;;;;;6.03;2.00;;;;;;;;;;4980049;28;20030;-69
2021/09/23 12:14:58;;;;;;;9.38;2.53;;;;;;;;;;4980388;28;20486;-69
2021/09/23 12:17:24;;;;;;;7.22;2.42;;;;;;;;;;4979055;28;20026;-71
2021/09/23 12:19:53;;;;;;;7.75;2.15;;;;;;;;;;4979768;28;20018;-68
2021/09/23 12:22:20;;;;;;;11.63;2.10;;;;;;;;;;4979027;28;20031;-69
2021/09/23 12:24:46;;;;;;;4.35;1.85;;;;;;;;;;4979878;28;20122;-70
2021/09/23 12:27:25;;;;;;;8.63;2.20;;;;;;;;;;4979916;28;20034;-71
2021/09/23 12:29:52;;;;;;;4.97;2.25;;;;;;;;;;4962300;28;20121;-70
2021/09/23 12:32:18;;;;;;;3.63;2.17;;;;;;;;;;4979596;28;20900;-65
2021/09/23 12:34:45;;;;;;;5.97;2.25;;;;;;;;;;4979667;28;20169;-65
2021/09/23 12:37:11;;;;;;;8.52;2.03;;;;;;;;;;4978995;28;20038;-66
2021/09/23 12:40:13;;;;;;;5.93;2.17;;;;;;;;;;4976830;28;20042;-74
2021/09/23 12:42:42;;;;;;;4.63;2.00;;;;;;;;;;4978301;28;20034;-76
2021/09/23 12:45:10;;;;;;;9.35;4.22;;;;;;;;;;4979368;28;20034;-76
2021/09/23 12:47:36;;;;;;;4.40;2.10;;;;;;;;;;4977976;28;20847;-77
2021/09/23 12:50:03;;;;;;;12.20;2.47;;;;;;;;;;4977892;28;20030;-68
2021/09/23 12:52:31;;;;;;;3.97;2.45;;;;;;;;;;4978000;28;20133;-69